Time;durP1;ratioP1;P1;durP2;ratioP2;P2;SDS_P1;SDS_P2;PMS_P1;PMS_P2;Temp;Humidity;BMP_temperature;BMP_pressure;BME280_temperature;BME280_humidity;BME280_pressure;Samples;Min_cycle;Max_cycle;Signal;HPM_P1;HPM_P2
2023/02/01 00:02:15;;;;;;;11.10;5.80;;;;;;;0.65;100.00;97736.27;106828;1271;25211;-74
2023/02/01 00:04:41;;;;;;;9.60;5.70;;;;;;;0.67;100.00;97736.21;106483;1284;24240;-73
2023/02/01 00:07:08;;;;;;;10.90;6.30;;;;;;;0.67;100.00;97733.30;106463;1283;138974;-73
2023/02/01 00:09:35;;;;;;;11.40;6.10;;;;;;;0.67;100.00;97743.15;106650;1283;22552;-74
2023/02/01 00:12:03;;;;;;;7.80;5.60;;;;;;;0.67;100.00;97739.77;106439;1266;139927;-74
2023/02/01 00:14:32;;;;;;;10.20;6.00;;;;;;;0.66;100.00;97735.98;106544;1283;26027;-74
2023/02/01 00:16:59;;;;;;;9.50;5.70;;;;;;;0.65;100.00;97738.08;106439;1283;24180;-74
2023/02/01 00:19:25;;;;;;;13.30;5.90;;;;;;;0.63;100.00;97738.02;106410;1283;138945;-73
2023/02/01 00:21:52;;;;;;;8.50;5.30;;;;;;;0.62;100.00;97743.38;106549;1263;22551;-73
2023/02/01 00:24:19;;;;;;;9.70;6.10;;;;;;;0.60;100.00;97734.30;106413;1283;138438;-73
2023/02/01 00:26:46;;;;;;;8.20;5.30;;;;;;;0.58;100.00;97734.66;106550;1271;22533;-73
2023/02/01 00:29:16;;;;;;;7.10;5.70;;;;;;;0.59;100.00;97729.80;106431;1283;139078;-74
2023/02/01 00:31:44;;;;;;;11.20;5.70;;;;;;;0.60;100.00;97733.76;106506;1265;24254;-74
2023/02/01 00:34:16;;;;;;;9.50;5.80;;;;;;;0.61;100.00;97729.36;106533;1284;24477;-73
2023/02/01 00:36:44;;;;;;;9.20;5.50;;;;;;;0.62;100.00;97716.14;106484;1283;138562;-73
2023/02/01 00:39:12;;;;;;;8.80;5.60;;;;;;;0.63;100.00;97716.14;106627;1277;25111;-77
2023/02/01 00:41:40;;;;;;;8.10;5.50;;;;;;;0.65;100.00;97715.08;106366;1265;138974;-73
2023/02/01 00:44:07;;;;;;;9.20;5.60;;;;;;;0.67;100.00;97709.46;106472;1284;22533;-73
2023/02/01 00:46:34;;;;;;;11.30;5.30;;;;;;;0.68;100.00;97707.33;106608;1283;25269;-73
2023/02/01 00:49:02;;;;;;;9.60;5.60;;;;;;;0.71;100.00;97710.20;106533;1283;138856;-73
2023/02/01 00:51:29;;;;;;;8.20;5.40;;;;;;;0.73;100.00;97720.59;106580;1263;24267;-73
2023/02/01 00:53:56;;;;;;;9.20;5.20;;;;;;;0.77;100.00;97728.89;106441;1276;139006;-73
2023/02/01 00:56:24;;;;;;;7.50;5.50;;;;;;;0.79;100.00;97716.98;106568;1283;22688;-73
2023/02/01 00:58:50;;;;;;;8.20;5.20;;;;;;;0.81;100.00;97713.85;106531;1283;25338;-73
2023/02/01 01:01:19;;;;;;;8.20;5.50;;;;;;;0.83;100.00;97718.10;106434;1283;138898;-73
2023/02/01 01:03:50;;;;;;;7.50;5.50;;;;;;;0.84;100.00;97718.65;106445;1283;23909;-73
2023/02/01 01:06:20;;;;;;;9.20;5.70;;;;;;;0.86;100.00;97712.14;107050;1283;140036;-73
2023/02/01 01:08:47;;;;;;;10.80;5.30;;;;;;;0.87;100.00;97713.38;107352;1278;22534;-73
2023/02/01 01:11:17;;;;;;;7.50;5.30;;;;;;;0.89;100.00;97710.63;106454;1262;138564;-74
2023/02/01 01:13:47;;;;;;;10.10;5.80;;;;;;;0.92;100.00;97706.18;106463;1265;26314;-73
2023/02/01 01:16:14;;;;;;;10.90;5.80;;;;;;;0.93;100.00;97722.44;106534;1283;22588;-73
2023/02/01 01:18:42;;;;;;;8.90;5.00;;;;;;;0.95;100.00;97738.76;106347;1283;140312;-73
2023/02/01 01:21:11;;;;;;;10.30;5.30;;;;;;;0.97;100.00;97723.64;106524;1283;24253;-73
2023/02/01 01:23:38;;;;;;;;;;;;;;;0.97;100.00;97706.40;106778;1265;138505;-73
2023/02/01 01:26:18;;;;;;;8.00;4.60;;;;;;;0.96;100.00;97716.73;106538;1283;24257;-74
2023/02/01 01:28:46;;;;;;;8.70;4.50;;;;;;;0.94;100.00;97729.48;106534;1283;22543;-73
2023/02/01 01:31:14;;;;;;;7.50;5.20;;;;;;;0.90;100.00;97732.29;106448;1283;139486;-73
2023/02/01 01:33:43;;;;;;;9.40;5.30;;;;;;;0.87;100.00;97731.11;106736;1264;25605;-73
2023/02/01 01:36:12;;;;;;;10.10;5.50;;;;;;;0.84;100.00;97729.41;106403;1283;139956;-73
2023/02/01 01:38:41;;;;;;;10.20;5.80;;;;;;;0.81;100.00;97727.08;106559;1283;22551;-73
2023/02/01 01:41:13;;;;;;;9.00;5.40;;;;;;;0.78;100.00;97725.64;106803;1283;22650;-73
2023/02/01 01:43:52;;;;;;;7.30;4.50;;;;;;;0.76;100.00;97708.80;106693;1264;22534;-73
2023/02/01 01:46:23;;;;;;;9.90;5.20;;;;;;;0.72;100.00;97713.23;106534;1283;22652;-73
2023/02/01 01:49:05;;;;;;;4.80;3.10;;;;;;;0.67;100.00;97710.34;106451;1283;138069;-73
2023/02/01 01:51:42;;;;;;;3.50;2.80;;;;;;;0.60;100.00;97703.38;106426;1283;22557;-73
2023/02/01 01:54:19;;;;;;;6.00;2.70;;;;;;;0.54;100.00;97705.39;106355;1265;138439;-73
2023/02/01 01:56:52;;;;;;;4.10;2.50;;;;;;;0.49;100.00;97708.33;106599;1283;22540;-73
2023/02/01 01:59:21;;;;;;;6.70;3.10;;;;;;;0.44;100.00;97713.83;106340;1283;138707;-73
2023/02/01 02:01:49;;;;;;;4.00;2.70;;;;;;;0.39;100.00;97720.72;106449;1283;23243;-72
2023/02/01 02:04:16;;;;;;;4.90;3.40;;;;;;;0.34;100.00;97719.88;106403;1264;25337;-73
2023/02/01 02:06:49;;;;;;;8.30;4.10;;;;;;;0.32;100.00;97723.60;106338;1281;141648;-73
2023/02/01 02:09:16;;;;;;;9.20;4.70;;;;;;;0.29;100.00;97719.56;106631;1278;22770;-73
2023/02/01 02:11:43;;;;;;;7.60;5.00;;;;;;;0.30;100.00;97721.51;106345;1278;138222;-73
2023/02/01 02:14:16;;;;;;;9.10;4.40;;;;;;;0.32;100.00;97723.00;106438;1282;25231;-72
2023/02/01 02:17:05;;;;;;;9.90;6.00;;;;;;;0.35;100.00;97730.89;106466;1283;22555;-73
2023/02/01 02:19:57;;;;;;;6.90;4.10;;;;;;;0.38;100.00;97734.36;106347;1281;138930;-73
2023/02/01 02:22:33;;;;;;;8.80;4.30;;;;;;;0.41;100.00;97735.48;106457;1284;24224;-73
2023/02/01 02:25:31;;;;;;;8.00;4.50;;;;;;;0.43;100.00;97738.46;106427;1265;138018;-73
2023/02/01 02:28:23;;;;;;;9.30;2.50;;;;;;;0.45;100.00;97736.55;106415;1282;23088;-73
2023/02/01 02:30:56;;;;;;;7.10;2.70;;;;;;;0.49;99.81;97734.90;106272;1284;137987;-73
2023/02/01 02:34:08;;;;;;;5.00;1.90;;;;;;;0.53;99.57;97736.77;106425;1261;23417;-73
2023/02/01 02:36:43;;;;;;;7.60;2.40;;;;;;;0.56;98.93;97735.98;105799;1291;138252;-73
2023/02/01 02:39:31;;;;;;;4.50;2.10;;;;;;;0.59;98.88;97732.84;106032;1290;22537;-72
2023/02/01 02:48:47;;;;;;;9.20;1.70;;;;;;;0.61;97.96;97744.52;105879;1289;138852;-73
2023/02/01 02:54:46;;;;;;;8.40;2.00;;;;;;;0.63;97.37;97752.86;105994;1284;138817;-73
2023/02/01 03:05:51;;;;;;;5.00;1.60;;;;;;;0.66;96.85;97765.83;105833;1271;139010;-73
2023/02/01 03:08:27;;;;;;;5.00;1.60;;;;;;;0.66;96.52;97758.11;106501;1276;22613;-73
2023/02/01 03:10:55;;;;;;;8.20;1.50;;;;;;;0.68;96.43;97757.30;106432;1283;22533;-72
2023/02/01 03:13:38;;;;;;;6.70;1.90;;;;;;;0.68;96.55;97757.54;106310;1284;138063;-72
2023/02/01 03:16:26;;;;;;;11.00;1.60;;;;;;;0.67;96.39;97763.23;106445;1265;22712;-73
2023/02/01 03:19:11;;;;;;;7.50;1.30;;;;;;;0.68;96.20;97767.92;106364;1283;138078;-72
2023/02/01 03:21:45;;;;;;;7.30;1.30;;;;;;;0.67;96.14;97767.42;106519;1282;25739;-73
2023/02/01 03:24:14;;;;;;;4.10;1.40;;;;;;;0.67;95.97;97769.65;106403;1259;138244;-73
2023/02/01 03:26:50;;;;;;;5.60;1.40;;;;;;;0.66;95.64;97784.58;107072;1283;22538;-73
2023/02/01 03:29:29;;;;;;;6.10;2.00;;;;;;;0.68;95.61;97798.06;106535;1283;138000;-73
2023/02/01 03:31:56;;;;;;;7.90;2.30;;;;;;;0.71;95.76;97815.92;106402;1284;22552;-72
2023/02/01 03:34:23;;;;;;;5.90;1.40;;;;;;;0.72;96.05;97788.81;106471;1260;23270;-73
2023/02/01 03:37:06;;;;;;;4.70;1.10;;;;;;;0.68;96.31;97785.91;106397;1282;138103;-72
2023/02/01 03:39:39;;;;;;;2.80;1.10;;;;;;;0.65;96.55;97797.63;106723;1282;25456;-73
2023/02/01 03:42:24;;;;;;;4.20;1.50;;;;;;;0.61;96.73;97795.43;106564;1282;137875;-73
2023/02/01 03:44:58;;;;;;;5.70;1.20;;;;;;;0.56;96.91;97806.54;106484;1266;26505;-73
2023/02/01 03:47:30;;;;;;;2.50;1.20;;;;;;;0.54;97.32;97808.76;106371;1283;140715;-72
2023/02/01 03:50:10;;;;;;;3.40;1.00;;;;;;;0.53;97.55;97808.77;106413;1284;22620;-73
2023/02/01 03:52:51;;;;;;;11.00;2.20;;;;;;;0.52;97.76;97810.77;106668;1284;24399;-73
2023/02/01 03:55:22;;;;;;;3.80;1.20;;;;;;;0.55;97.78;97811.92;106435;1263;138208;-73
2023/02/01 03:58:03;;;;;;;7.30;1.60;;;;;;;0.56;97.73;97815.60;106751;1282;22539;-73
2023/02/01 04:00:31;;;;;;;3.70;1.60;;;;;;;0.60;97.60;97814.67;106494;1282;138264;-73
2023/02/01 04:02:59;;;;;;;4.70;1.30;;;;;;;0.62;97.69;97817.25;106302;1282;190573;-73
2023/02/01 04:05:25;;;;;;;8.10;1.60;;;;;;;0.65;97.58;97818.87;106359;1282;138290;-73
2023/02/01 04:07:57;;;;;;;7.60;2.10;;;;;;;0.67;97.63;97810.70;106509;1261;22824;-73
2023/02/01 04:10:24;;;;;;;5.70;2.10;;;;;;;0.68;97.67;97806.67;106489;1284;25224;-73
2023/02/01 04:12:52;;;;;;;6.70;2.40;;;;;;;0.68;97.48;97806.67;106465;1284;138509;-73
2023/02/01 04:15:19;;;;;;;7.00;2.60;;;;;;;0.67;97.41;97812.77;106648;1282;24199;-73
2023/02/01 04:17:46;;;;;;;5.70;2.50;;;;;;;0.67;97.33;97811.08;106398;1276;138027;-73
2023/02/01 04:20:13;;;;;;;6.00;2.40;;;;;;;0.65;97.51;97815.23;106519;1282;24209;-73
2023/02/01 04:22:40;;;;;;;7.60;2.60;;;;;;;0.65;97.53;97819.40;106487;1282;22542;-73
2023/02/01 04:25:07;;;;;;;7.70;2.30;;;;;;;0.64;97.67;97822.94;106412;1282;137972;-73
2023/02/01 04:27:35;;;;;;;5.00;1.70;;;;;;;0.63;97.65;97818.07;106772;1265;22546;-73
2023/02/01 04:30:03;;;;;;;4.60;2.50;;;;;;;0.62;97.64;97814.20;106353;1276;137854;-73
2023/02/01 04:32:30;;;;;;;3.70;1.50;;;;;;;0.61;97.59;97818.23;106402;1283;25312;-73
2023/02/01 04:34:57;;;;;;;4.70;1.60;;;;;;;0.60;97.67;97821.10;106460;1280;22538;-73
2023/02/01 04:37:24;;;;;;;4.70;1.90;;;;;;;0.59;97.60;97818.55;106365;1284;137842;-72
2023/02/01 04:39:51;;;;;;;7.10;1.80;;;;;;;0.58;97.59;97815.62;106479;1284;22557;-72
2023/02/01 04:42:18;;;;;;;3.50;1.60;;;;;;;0.57;97.61;97817.30;106417;1283;137807;-72
2023/02/01 04:44:44;;;;;;;5.80;2.00;;;;;;;0.56;97.61;97822.03;106446;1282;24477;-73
2023/02/01 04:47:11;;;;;;;5.30;1.90;;;;;;;0.57;97.53;97824.88;106433;1265;22537;-72
2023/02/01 04:49:38;;;;;;;3.30;1.70;;;;;;;0.56;97.54;97830.15;106328;1284;137765;-73
2023/02/01 04:52:05;;;;;;;8.60;2.30;;;;;;;0.57;97.63;97829.86;106442;1284;25339;-73
2023/02/01 04:54:32;;;;;;;6.90;2.00;;;;;;;0.56;97.70;97831.88;106434;1281;137857;-73
2023/02/01 04:56:59;;;;;;;6.00;2.30;;;;;;;0.56;97.66;97833.11;106470;1267;22537;-72
2023/02/01 04:59:26;;;;;;;5.90;2.20;;;;;;;0.56;97.77;97835.64;106357;1282;139028;-73
2023/02/01 05:01:53;;;;;;;4.40;2.30;;;;;;;0.57;97.67;97840.91;106458;1282;25309;-73
2023/02/01 05:04:20;;;;;;;5.40;2.60;;;;;;;0.57;97.91;97845.90;106444;1282;25166;-72
2023/02/01 05:06:47;;;;;;;5.30;2.20;;;;;;;0.58;97.79;97848.68;106324;1266;137857;-73
2023/02/01 05:09:14;;;;;;;6.20;2.40;;;;;;;0.58;97.67;97845.08;106405;1284;22555;-73
2023/02/01 05:14:27;;;;;;;8.00;3.40;;;;;;;0.59;97.93;97843.23;106488;1282;24249;-72
2023/02/01 05:16:54;;;;;;;8.10;2.40;;;;;;;0.59;97.86;97836.55;106458;1274;23488;-73
2023/02/01 05:19:21;;;;;;;5.50;2.50;;;;;;;0.59;97.80;97838.02;106388;1282;137822;-72
2023/02/01 05:21:48;;;;;;;4.40;1.90;;;;;;;0.59;97.89;97834.26;106470;1282;25315;-73
2023/02/01 05:24:20;;;;;;;4.00;2.40;;;;;;;0.59;97.80;97840.64;106360;1282;137900;-72
2023/02/01 05:26:48;;;;;;;5.00;2.10;;;;;;;0.60;97.79;97838.25;106457;1266;22870;-73
2023/02/01 05:29:16;;;;;;;5.10;1.90;;;;;;;0.60;97.66;97836.23;106298;1283;137990;-73
2023/02/01 05:31:47;;;;;;;4.00;1.70;;;;;;;0.60;97.84;97839.69;106696;1283;22552;-73
2023/02/01 05:34:15;;;;;;;4.80;2.70;;;;;;;0.60;97.68;97838.79;106284;1284;22548;-73
2023/02/01 05:36:42;;;;;;;4.70;3.20;;;;;;;0.60;97.61;97838.24;106211;1260;138008;-73
2023/02/01 05:39:10;;;;;;;6.70;3.20;;;;;;;0.60;97.62;97839.65;106462;1279;22533;-73
2023/02/01 05:41:37;;;;;;;8.70;3.90;;;;;;;0.59;97.57;97842.09;106463;1282;140577;-73
2023/02/01 05:44:06;;;;;;;8.00;3.70;;;;;;;0.59;97.80;97841.79;106412;1283;22553;-72
2023/02/01 05:46:35;;;;;;;7.10;3.40;;;;;;;0.59;97.59;97841.59;106442;1283;22586;-72
2023/02/01 05:49:03;;;;;;;7.40;4.40;;;;;;;0.59;97.46;97843.31;106190;1266;138909;-73
2023/02/01 05:51:30;;;;;;;8.70;3.60;;;;;;;0.60;97.60;97842.50;106397;1271;25410;-72
2023/02/01 05:53:57;;;;;;;7.50;3.40;;;;;;;0.60;97.52;97837.52;106412;1276;138012;-73
2023/02/01 05:56:24;;;;;;;8.90;3.90;;;;;;;0.60;97.65;97836.92;106409;1284;22558;-73
2023/02/01 05:58:51;;;;;;;7.70;4.40;;;;;;;0.61;97.50;97841.11;106505;1264;26653;-72
2023/02/01 06:01:18;;;;;;;6.60;3.60;;;;;;;0.61;97.63;97840.77;106295;1283;137839;-72
2023/02/01 06:03:45;;;;;;;6.40;3.40;;;;;;;0.62;97.63;97839.20;106508;1283;22585;-72
2023/02/01 06:06:12;;;;;;;7.80;4.30;;;;;;;0.63;97.59;97840.16;106318;1283;137867;-73
2023/02/01 06:08:40;;;;;;;9.30;3.60;;;;;;;0.63;97.50;97841.98;106339;1265;22819;-73
2023/02/01 06:11:07;;;;;;;7.40;3.90;;;;;;;0.64;97.29;97838.48;106325;1284;24093;-73
2023/02/01 06:13:35;;;;;;;7.50;3.80;;;;;;;0.64;97.20;97834.15;106386;1283;138979;-72
2023/02/01 06:16:02;;;;;;;8.90;4.10;;;;;;;0.63;97.29;97837.98;106431;1283;24275;-72
2023/02/01 06:18:30;;;;;;;7.60;4.40;;;;;;;0.63;97.17;97836.59;106347;1273;138026;-72
2023/02/01 06:21:01;;;;;;;8.40;4.20;;;;;;;0.63;97.17;97834.39;106441;1282;22545;-73
2023/02/01 06:23:30;;;;;;;5.70;3.20;;;;;;;0.63;96.92;97834.60;106341;1282;138037;-72
2023/02/01 06:26:03;;;;;;;8.20;3.30;;;;;;;0.62;96.93;97834.52;106456;1282;22540;-72
2023/02/01 06:28:32;;;;;;;7.70;3.90;;;;;;;0.62;96.98;97834.97;106438;1273;22534;-72
2023/02/01 06:31:06;;;;;;;9.30;3.60;;;;;;;0.62;96.83;97837.77;106411;1283;137829;-73
2023/02/01 06:33:34;;;;;;;8.10;3.50;;;;;;;0.64;96.77;97836.16;106313;1284;22543;-72
2023/02/01 06:36:03;;;;;;;10.80;4.30;;;;;;;0.64;96.66;97835.80;106188;1284;137837;-73
2023/02/01 06:38:31;;;;;;;9.80;3.80;;;;;;;0.64;96.78;97838.20;106367;1265;22543;-72
2023/02/01 06:40:58;;;;;;;13.10;4.40;;;;;;;0.66;96.61;97834.98;106525;1282;22590;-72
2023/02/01 06:43:26;;;;;;;11.10;3.40;;;;;;;0.67;96.36;97827.98;106373;1282;137970;-72
2023/02/01 06:45:53;;;;;;;10.60;3.90;;;;;;;0.69;96.21;97827.75;106553;1282;23096;-73
2023/02/01 06:48:20;;;;;;;11.60;4.70;;;;;;;0.71;96.23;97828.38;106284;1263;140182;-73
2023/02/01 06:50:47;;;;;;;7.80;3.10;;;;;;;0.73;95.97;97827.37;106417;1283;24031;-73
2023/02/01 06:53:14;;;;;;;8.20;3.60;;;;;;;0.77;96.10;97828.38;106339;1283;138005;-74
2023/02/01 06:55:41;;;;;;;12.60;4.00;;;;;;;0.79;95.95;97827.36;106423;1284;25388;-72
2023/02/01 06:58:08;;;;;;;13.60;4.40;;;;;;;0.81;95.84;97829.84;106461;1283;23343;-72
2023/02/01 07:00:36;;;;;;;9.60;3.90;;;;;;;0.83;95.57;97831.66;106478;1282;139599;-73
2023/02/01 07:03:02;;;;;;;13.60;4.70;;;;;;;0.86;95.42;97828.42;106550;1282;22632;-72
2023/02/01 07:05:29;;;;;;;10.70;3.50;;;;;;;0.90;95.14;97826.88;106484;1282;138406;-73
2023/02/01 07:07:56;;;;;;;10.30;3.90;;;;;;;0.92;95.16;97827.95;106659;1275;24083;-73
2023/02/01 07:10:24;;;;;;;11.00;4.10;;;;;;;0.95;95.06;97825.83;106397;1284;25487;-73
2023/02/01 07:12:50;;;;;;;12.00;4.00;;;;;;;0.97;94.83;97826.50;106470;1280;138237;-73
2023/02/01 07:15:17;;;;;;;8.80;3.70;;;;;;;0.99;94.76;97826.74;106440;1284;23324;-73
2023/02/01 07:17:46;;;;;;;10.60;4.20;;;;;;;1.00;94.58;97825.77;106424;1284;140059;-73
2023/02/01 07:20:13;;;;;;;9.80;4.20;;;;;;;1.01;94.49;97819.17;106550;1266;22558;-72
2023/02/01 07:22:40;;;;;;;11.40;4.20;;;;;;;1.02;94.38;97820.17;106592;1282;26590;-72
2023/02/01 07:25:07;;;;;;;8.00;4.00;;;;;;;1.03;94.44;97821.73;106481;1282;138082;-73
2023/02/01 07:27:36;;;;;;;11.40;3.80;;;;;;;1.05;94.17;97822.79;106539;1282;22561;-73
2023/02/01 07:30:04;;;;;;;8.50;3.90;;;;;;;1.06;93.98;97819.58;106478;1265;138046;-72
2023/02/01 07:32:32;;;;;;;9.40;4.00;;;;;;;1.08;93.74;97810.73;106509;1281;22536;-72
2023/02/01 07:34:58;;;;;;;12.50;4.30;;;;;;;1.11;93.87;97813.60;106564;1283;26648;-73
2023/02/01 07:37:25;;;;;;;8.90;3.70;;;;;;;1.13;93.41;97810.80;106416;1280;137993;-73
2023/02/01 07:39:52;;;;;;;12.20;3.90;;;;;;;1.16;93.51;97805.29;107637;1263;23151;-73
2023/02/01 07:42:19;;;;;;;9.90;4.20;;;;;;;1.19;93.55;97800.02;106740;1280;137995;-73
2023/02/01 07:44:46;;;;;;;13.80;3.70;;;;;;;1.21;93.29;97800.70;106768;1276;22535;-73
2023/02/01 07:47:13;;;;;;;11.20;3.40;;;;;;;1.24;93.28;97798.92;107208;1282;23095;-73
2023/02/01 07:49:40;;;;;;;9.30;3.50;;;;;;;1.24;93.07;97792.48;106533;1261;25379;-73
2023/02/01 07:52:07;;;;;;;14.40;3.60;;;;;;;1.30;93.07;97799.94;106560;1284;24359;-73
2023/02/01 07:54:33;;;;;;;11.40;3.60;;;;;;;1.34;92.77;97796.23;106401;1283;138719;-73
2023/02/01 07:57:00;;;;;;;9.80;3.30;;;;;;;1.38;92.38;97797.93;107027;1283;25532;-73
2023/02/01 07:59:27;;;;;;;10.90;2.80;;;;;;;1.41;92.29;97796.91;106527;1276;139183;-73
2023/02/01 08:01:54;;;;;;;14.00;3.80;;;;;;;1.45;92.27;97797.70;106689;1282;23119;-73
2023/02/01 08:04:21;;;;;;;9.90;2.90;;;;;;;1.48;91.98;97803.08;106579;1282;24236;-73
2023/02/01 08:06:48;;;;;;;9.70;4.30;;;;;;;1.50;91.57;97805.44;106447;1276;137911;-73
2023/02/01 08:09:14;;;;;;;9.80;2.60;;;;;;;1.53;91.33;97791.54;106576;1282;22764;-72
2023/02/01 08:11:41;;;;;;;7.90;2.80;;;;;;;1.56;91.11;97797.55;106410;1277;139102;-73
2023/02/01 08:14:08;;;;;;;8.00;3.00;;;;;;;1.58;90.40;97793.14;106539;1284;23009;-73
2023/02/01 08:16:37;;;;;;;5.70;2.40;;;;;;;1.62;90.23;97802.02;106510;1280;23915;-73
2023/02/01 08:19:04;;;;;;;6.40;2.40;;;;;;;1.66;89.84;97795.67;106820;1280;137966;-73
2023/02/01 08:21:36;;;;;;;6.40;2.70;;;;;;;1.70;89.62;97797.98;106581;1260;22537;-73
2023/02/01 08:24:08;;;;;;;8.50;3.40;;;;;;;1.74;89.31;97795.68;106805;1283;137819;-73
2023/02/01 08:26:35;;;;;;;9.00;4.20;;;;;;;1.79;89.29;97797.17;106722;1282;23347;-73
2023/02/01 08:29:04;;;;;;;9.80;2.90;;;;;;;1.84;88.90;97792.23;106623;1276;25515;-73
2023/02/01 08:31:31;;;;;;;;;;;;;;;1.87;88.69;97791.89;106649;1264;137782;-73
2023/02/01 08:34:01;;;;;;;7.90;2.80;;;;;;;1.91;88.49;97790.16;106526;1284;22551;-73
2023/02/01 08:36:29;;;;;;;6.90;2.80;;;;;;;1.94;88.27;97796.41;106859;1283;138169;-73
2023/02/01 08:38:57;;;;;;;6.30;3.10;;;;;;;1.96;88.50;97797.36;106471;1283;24468;-73
2023/02/01 08:41:27;;;;;;;7.00;3.30;;;;;;;1.98;88.33;97806.23;106614;1263;138774;-73
2023/02/01 08:43:54;;;;;;;8.60;2.90;;;;;;;1.98;87.60;97808.71;106699;1275;22586;-73
2023/02/01 08:46:21;;;;;;;8.50;3.10;;;;;;;1.99;87.35;97806.98;106570;1282;24019;-73
2023/02/01 08:48:49;;;;;;;6.90;3.00;;;;;;;2.01;87.25;97807.69;106653;1282;138549;-73
2023/02/01 08:51:18;;;;;;;10.60;3.30;;;;;;;2.03;87.23;97809.21;106535;1275;24273;-73
2023/02/01 08:53:45;;;;;;;8.40;3.40;;;;;;;2.04;87.18;97810.83;106916;1277;138180;-73
2023/02/01 08:56:15;;;;;;;8.30;3.60;;;;;;;2.06;87.22;97808.42;106782;1284;25290;-73
2023/02/01 08:58:42;;;;;;;10.10;3.70;;;;;;;2.08;87.20;97813.31;106449;1284;25274;-73
2023/02/01 09:01:13;;;;;;;11.70;3.80;;;;;;;2.11;87.40;97813.27;106470;1265;138429;-73
2023/02/01 09:03:40;;;;;;;9.70;3.80;;;;;;;2.15;87.02;97804.29;106598;1280;22559;-73
2023/02/01 09:06:10;;;;;;;8.30;3.70;;;;;;;2.19;86.92;97800.04;106860;1282;138151;-73
2023/02/01 09:08:39;;;;;;;11.70;4.40;;;;;;;2.24;86.60;97800.58;107388;1273;22534;-73
2023/02/01 09:11:10;;;;;;;9.30;3.90;;;;;;;2.30;86.50;97795.20;106594;1261;22566;-73
2023/02/01 09:13:37;;;;;;;10.50;4.30;;;;;;;2.35;86.38;97794.08;106978;1276;137740;-73
2023/02/01 09:16:05;;;;;;;12.30;5.20;;;;;;;2.41;86.32;97791.50;106823;1267;23321;-73
2023/02/01 09:18:32;;;;;;;8.50;4.80;;;;;;;2.45;86.44;97786.08;106851;1277;138024;-73
2023/02/01 09:20:59;;;;;;;12.10;4.10;;;;;;;2.50;86.36;97785.05;106733;1279;22544;-74
2023/02/01 09:23:26;;;;;;;6.60;3.50;;;;;;;2.56;86.52;97781.38;106611;1282;138270;-73
2023/02/01 09:25:53;;;;;;;6.80;3.20;;;;;;;2.63;86.23;97780.21;108135;1269;22548;-73
2023/02/01 09:28:20;;;;;;;8.10;3.30;;;;;;;2.71;86.08;97779.20;107379;1276;23238;-78
2023/02/01 09:30:47;;;;;;;8.70;3.50;;;;;;;2.80;86.44;97772.02;107047;1276;137980;-74
2023/02/01 09:33:14;;;;;;;12.10;4.90;;;;;;;2.87;85.48;97771.83;106776;1273;22837;-74
2023/02/01 09:35:42;;;;;;;7.80;3.30;;;;;;;2.89;85.59;97770.58;106797;1273;139301;-74
2023/02/01 09:38:09;;;;;;;11.10;3.70;;;;;;;2.89;85.51;97770.66;107298;1276;22710;-74
2023/02/01 09:40:45;;;;;;;7.60;3.60;;;;;;;2.88;85.74;97762.92;109150;1276;22531;-74
2023/02/01 09:43:21;;;;;;;5.80;3.00;;;;;;;2.90;85.08;97762.88;107222;1261;138322;-74
2023/02/01 09:46:17;;;;;;;7.20;2.80;;;;;;;2.95;84.52;97760.46;106685;1280;24445;-75
2023/02/01 09:48:46;;;;;;;8.40;2.60;;;;;;;3.01;83.99;97762.25;106533;1280;139512;-73
2023/02/01 09:51:21;;;;;;;7.80;3.20;;;;;;;3.06;84.10;97765.95;106580;1282;25298;-73
2023/02/01 09:54:12;;;;;;;7.20;2.80;;;;;;;3.09;83.10;97761.43;106624;1280;139495;-73
2023/02/01 09:56:59;;;;;;;9.10;2.80;;;;;;;3.12;83.44;97762.57;106414;1284;22713;-73
2023/02/01 09:59:33;;;;;;;8.70;2.90;;;;;;;3.14;82.96;97762.93;106496;1283;138593;-74
2023/02/01 10:02:03;;;;;;;8.20;3.90;;;;;;;3.17;82.31;97751.75;107307;1260;22537;-73
2023/02/01 10:04:33;;;;;;;8.40;3.30;;;;;;;3.20;82.81;97750.33;106947;1282;24233;-72
2023/02/01 10:07:17;;;;;;;8.90;3.40;;;;;;;3.22;82.71;97755.98;106622;1282;139789;-71
2023/02/01 10:10:07;;;;;;;11.60;3.90;;;;;;;3.23;82.39;97745.87;106807;1277;22670;-72
2023/02/01 10:12:44;;;;;;;8.50;3.20;;;;;;;3.27;82.24;97744.83;106917;1263;138748;-72
2023/02/01 10:16:12;;;;;;;8.40;2.60;;;;;;;3.30;82.33;97745.14;107198;1280;22603;-72
2023/02/01 10:18:52;;;;;;;4.00;2.00;;;;;;;3.29;81.71;97746.84;105887;1283;138518;-72
2023/02/01 10:21:41;;;;;;;6.10;2.50;;;;;;;3.28;82.48;97744.08;106089;1277;22550;-72
2023/02/01 10:24:17;;;;;;;5.70;2.40;;;;;;;3.28;82.33;97741.46;106010;1267;139752;-72
2023/02/01 10:27:14;;;;;;;4.70;2.50;;;;;;;3.31;82.94;97746.13;106065;1289;25459;-72
2023/02/01 10:29:45;;;;;;;6.10;2.20;;;;;;;3.33;83.11;97737.55;106030;1285;138218;-72
2023/02/01 10:32:21;;;;;;;5.90;2.40;;;;;;;3.36;83.01;97735.95;106520;1283;24232;-72
2023/02/01 10:34:56;;;;;;;9.90;3.70;;;;;;;3.34;82.79;97738.44;106178;1286;22730;-72
2023/02/01 10:37:31;;;;;;;11.10;4.70;;;;;;;3.34;83.30;97735.13;106094;1289;138189;-72
2023/02/01 10:40:13;;;;;;;8.30;3.90;;;;;;;3.32;83.33;97743.95;106304;1289;22976;-72
2023/02/01 10:42:40;;;;;;;6.00;3.20;;;;;;;3.30;83.34;97741.61;105869;1274;138017;-72
2023/02/01 10:45:12;;;;;;;7.80;3.10;;;;;;;3.29;83.59;97739.06;106009;1273;26618;-72
2023/02/01 10:47:39;;;;;;;14.10;5.80;;;;;;;3.28;83.65;97736.62;106050;1288;138118;-74
2023/02/01 10:50:28;;;;;;;13.40;5.40;;;;;;;3.26;83.50;97742.14;106761;1282;22649;-72
2023/02/01 10:53:09;;;;;;;10.40;4.30;;;;;;;3.23;83.68;97742.56;106852;1260;23630;-73
2023/02/01 10:55:38;;;;;;;10.00;5.60;;;;;;;3.18;83.70;97737.95;106440;1283;138082;-72
2023/02/01 10:58:36;;;;;;;13.10;6.00;;;;;;;3.13;83.81;97737.20;106517;1284;22660;-72
2023/02/01 11:01:06;;;;;;;11.30;4.90;;;;;;;3.08;84.07;97743.45;106410;1283;138292;-72
2023/02/01 11:03:38;;;;;;;8.60;4.10;;;;;;;3.05;84.28;97743.81;106618;1260;24204;-72
2023/02/01 11:06:17;;;;;;;7.80;3.30;;;;;;;3.03;84.69;97735.58;106417;1275;138824;-72
2023/02/01 11:08:48;;;;;;;16.70;7.70;;;;;;;3.01;84.66;97732.21;106559;1282;24346;-72
2023/02/01 11:11:15;;;;;;;14.70;6.70;;;;;;;2.96;84.63;97732.56;106326;1282;138752;-72
2023/02/01 11:13:43;;;;;;;14.70;5.70;;;;;;;2.93;85.19;97725.74;106469;1260;22651;-72
2023/02/01 11:16:13;;;;;;;12.70;7.20;;;;;;;2.91;84.91;97723.15;106396;1284;25420;-72
2023/02/01 11:18:41;;;;;;;13.10;6.70;;;;;;;2.88;84.86;97717.92;106461;1280;138542;-72
2023/02/01 11:21:09;;;;;;;8.50;4.60;;;;;;;2.87;84.69;97719.86;106651;1283;24222;-72
2023/02/01 11:23:45;;;;;;;21.80;8.90;;;;;;;2.86;84.68;97717.42;106358;1280;137989;-73
2023/02/01 11:26:23;;;;;;;24.70;10.60;;;;;;;2.86;85.17;97716.35;106805;1261;22537;-72
2023/02/01 11:29:02;;;;;;;18.80;9.20;;;;;;;2.84;85.33;97718.15;108903;1267;22203;-73
2023/02/01 11:31:32;;;;;;;13.80;6.90;;;;;;;2.83;85.51;97714.21;106447;1282;138624;-72
2023/02/01 11:34:25;;;;;;;14.20;7.30;;;;;;;2.81;85.59;97712.52;107247;1262;22798;-74
2023/02/01 11:37:03;;;;;;;18.00;7.80;;;;;;;2.79;85.64;97708.27;106607;1271;139044;-72
2023/02/01 11:39:33;;;;;;;20.10;9.70;;;;;;;2.79;85.90;97698.38;107156;1277;25345;-72
2023/02/01 11:42:17;;;;;;;30.40;12.10;;;;;;;2.77;86.16;97702.45;106906;1271;138369;-72
2023/02/01 11:44:46;;;;;;;22.00;8.50;;;;;;;2.77;86.41;97698.98;106792;1260;23565;-72
2023/02/01 11:47:24;;;;;;;21.10;10.70;;;;;;;2.75;86.67;97695.21;107031;1267;25482;-72
2023/02/01 11:49:53;;;;;;;17.70;8.40;;;;;;;2.74;86.60;97693.55;106902;1267;26669;-72
2023/02/01 11:53:08;;;;;;;18.30;7.00;;;;;;;2.73;86.78;97695.82;107153;1267;22970;-72
2023/02/01 11:55:57;;;;;;;11.50;4.90;;;;;;;2.72;86.88;97699.65;106281;1267;138309;-73
2023/02/01 11:58:51;;;;;;;10.20;5.50;;;;;;;2.69;86.86;97697.09;106393;1275;22718;-72
2023/02/01 12:01:30;;;;;;;7.70;3.60;;;;;;;2.66;86.96;97693.40;105912;1282;138371;-72
2023/02/01 12:04:31;;;;;;;9.60;3.50;;;;;;;2.65;87.34;97689.35;106436;1266;22136;-72
2023/02/01 12:07:24;;;;;;;7.90;3.60;;;;;;;2.61;87.52;97686.64;106217;1289;138514;-72
2023/02/01 12:10:02;;;;;;;6.70;3.00;;;;;;;2.62;87.99;97684.73;106048;1287;25225;-72